createdAt,value
2019-02-21T00:00:23.904Z,0.00
2019-02-21T00:01:15.304Z,0.00
2019-02-21T00:02:15.290Z,0.00
2019-02-21T00:03:15.191Z,0.00
2019-02-21T00:04:15.132Z,0.00
2019-02-21T00:05:15.075Z,0.00
2019-02-21T00:06:15.016Z,0.00
2019-02-21T00:07:14.999Z,0.00
2019-02-21T00:08:14.901Z,0.00
2019-02-21T00:09:14.878Z,0.00
2019-02-21T00:10:14.791Z,0.00
2019-02-21T00:11:14.734Z,0.00
2019-02-21T00:12:14.674Z,0.00
2019-02-21T00:13:14.619Z,0.00
2019-02-21T00:14:14.592Z,0.00
2019-02-21T00:15:14.502Z,0.00
2019-02-21T00:16:14.446Z,0.00
2019-02-21T00:17:14.389Z,0.00
2019-02-21T00:18:14.333Z,0.00
2019-02-21T00:19:14.306Z,0.00
2019-02-21T00:20:14.251Z,0.00
2019-02-21T00:21:14.162Z,0.00
2019-02-21T00:22:14.103Z,0.00
2019-02-21T00:23:14.048Z,0.00
2019-02-21T00:24:14.024Z,0.00
2019-02-21T00:25:13.932Z,0.00
2019-02-21T00:26:13.912Z,0.00
2019-02-21T00:27:13.818Z,0.00
2019-02-21T00:28:13.763Z,0.00
2019-02-21T00:29:13.705Z,0.00
2019-02-21T00:30:13.646Z,0.00
2019-02-21T00:31:13.623Z,0.00
2019-02-21T00:32:13.540Z,0.00
2019-02-21T00:33:13.478Z,0.00
2019-02-21T00:34:13.421Z,0.00
2019-02-21T00:35:13.370Z,0.00
2019-02-21T00:36:13.343Z,0.00
2019-02-21T00:37:13.249Z,0.00
2019-02-21T00:38:13.195Z,0.00
2019-02-21T00:39:13.134Z,0.00
2019-02-21T00:40:13.078Z,0.00
2019-02-21T00:41:13.052Z,0.00
2019-02-21T00:42:12.962Z,0.00
2019-02-21T00:43:12.905Z,0.00
2019-02-21T00:44:12.849Z,0.00
2019-02-21T00:45:12.796Z,0.00
2019-02-21T00:46:12.767Z,0.00
2019-02-21T00:47:12.710Z,0.00
2019-02-21T00:48:12.619Z,0.00
2019-02-21T00:49:12.596Z,0.00
2019-02-21T00:50:12.506Z,0.00
2019-02-21T00:51:12.451Z,0.00
2019-02-21T00:52:12.390Z,0.00
2019-02-21T00:53:12.335Z,0.00
2019-02-21T00:54:12.318Z,0.00
2019-02-21T00:55:12.223Z,0.00
2019-02-21T00:56:12.168Z,0.00
2019-02-21T00:57:12.111Z,0.00
2019-02-21T00:58:12.048Z,0.00
2019-02-21T00:59:12.024Z,0.00
2019-02-21T01:00:11.937Z,0.00
2019-02-21T01:01:11.880Z,0.00
2019-02-21T01:02:11.854Z,0.00
2019-02-21T01:03:11.766Z,0.00
2019-02-21T01:04:11.738Z,0.00
2019-02-21T01:05:11.652Z,0.00
2019-02-21T01:06:11.624Z,0.00
2019-02-21T01:07:11.568Z,0.00
2019-02-21T01:08:11.479Z,0.00
2019-02-21T01:09:11.422Z,0.00
2019-02-21T01:10:11.366Z,0.00
2019-02-21T01:11:11.309Z,0.00
2019-02-21T01:12:11.275Z,0.00
2019-02-21T01:13:11.194Z,0.00
2019-02-21T01:14:11.166Z,0.00
2019-02-21T01:15:11.085Z,0.00
2019-02-21T01:16:11.023Z,0.00
2019-02-21T01:17:11.000Z,0.00
2019-02-21T01:18:10.942Z,0.00
2019-02-21T01:19:10.855Z,0.00
2019-02-21T01:20:10.795Z,0.00
2019-02-21T01:21:10.740Z,0.00
2019-02-21T01:22:10.681Z,0.00
2019-02-21T01:23:10.748Z,0.00
2019-02-21T01:24:10.570Z,0.00
2019-02-21T01:25:10.510Z,0.00
2019-02-21T01:26:10.455Z,0.00
2019-02-21T01:27:10.398Z,0.00
2019-02-21T01:28:10.377Z,0.00
2019-02-21T01:29:10.282Z,0.00
2019-02-21T01:30:10.223Z,0.00
2019-02-21T01:31:10.167Z,0.00
2019-02-21T01:32:10.110Z,0.00
2019-02-21T01:33:10.088Z,0.00
2019-02-21T01:34:09.998Z,0.00
2019-02-21T01:35:09.940Z,0.00
2019-02-21T01:36:09.880Z,0.00
2019-02-21T01:37:09.824Z,0.00
2019-02-21T01:38:09.803Z,0.00
2019-02-21T01:39:09.711Z,0.00
2019-02-21T01:40:09.684Z,0.00
2019-02-21T01:41:09.596Z,0.00
2019-02-21T01:42:09.540Z,0.00
2019-02-21T01:43:09.482Z,0.00
2019-02-21T01:44:09.460Z,0.00
2019-02-21T01:45:09.398Z,0.00
2019-02-21T01:46:09.311Z,0.00
2019-02-21T01:47:09.254Z,0.00
2019-02-21T01:48:09.197Z,0.00
2019-02-21T01:49:09.173Z,0.00
2019-02-21T01:50:09.083Z,0.00
2019-02-21T01:51:09.074Z,0.00
2019-02-21T01:52:08.967Z,0.00
2019-02-21T01:53:08.910Z,0.00
2019-02-21T01:54:08.853Z,0.00
2019-02-21T01:55:08.797Z,0.00
2019-02-21T01:56:08.781Z,0.00
2019-02-21T01:57:08.680Z,0.00
2019-02-21T01:58:08.622Z,0.00
2019-02-21T01:59:08.568Z,0.00
2019-02-21T02:00:08.515Z,0.00
2019-02-21T02:01:09.091Z,0.00
2019-02-21T02:02:08.395Z,0.00
2019-02-21T02:03:08.337Z,0.00
2019-02-21T02:04:08.280Z,0.00
2019-02-21T02:05:08.222Z,0.00
2019-02-21T02:06:08.200Z,0.00
2019-02-21T02:07:08.110Z,0.00
2019-02-21T02:08:08.051Z,0.00
2019-02-21T02:09:08.027Z,0.00
2019-02-21T02:10:07.940Z,0.00
2019-02-21T02:11:07.885Z,0.00
2019-02-21T02:12:07.821Z,0.00
2019-02-21T02:13:07.774Z,0.00
2019-02-21T02:14:07.740Z,0.00
2019-02-21T02:15:07.683Z,0.00
2019-02-21T02:16:07.592Z,0.00
2019-02-21T02:17:07.538Z,0.00
2019-02-21T02:18:07.478Z,0.00
2019-02-21T02:19:07.422Z,0.00
2019-02-21T02:20:07.395Z,0.00
2019-02-21T02:21:07.306Z,0.00
2019-02-21T02:22:07.285Z,0.00
2019-02-21T02:23:07.193Z,0.00
2019-02-21T02:24:07.165Z,0.00
2019-02-21T02:25:07.078Z,0.00
2019-02-21T02:26:07.018Z,0.00
2019-02-21T02:27:07.002Z,0.00
2019-02-21T02:28:06.904Z,0.00
2019-02-21T02:29:06.847Z,0.00
2019-02-21T02:30:06.794Z,0.00
2019-02-21T02:31:06.736Z,0.00
2019-02-21T02:32:09.536Z,0.00
2019-02-21T02:33:06.619Z,0.00
2019-02-21T02:34:06.566Z,0.00
2019-02-21T02:35:06.511Z,0.00
2019-02-21T02:36:06.453Z,0.00
2019-02-21T02:37:06.430Z,0.00
2019-02-21T02:38:06.331Z,0.00
2019-02-21T02:39:06.278Z,0.00
2019-02-21T02:40:06.219Z,0.00
2019-02-21T02:41:06.159Z,0.00
2019-02-21T02:42:06.131Z,0.00
2019-02-21T02:43:06.095Z,0.00
2019-02-21T02:44:05.991Z,0.00
2019-02-21T02:45:05.932Z,0.00
2019-02-21T02:46:05.872Z,0.00
2019-02-21T02:47:05.817Z,0.00
2019-02-21T02:48:05.788Z,0.00
2019-02-21T02:49:05.700Z,0.00
2019-02-21T02:50:05.674Z,0.00
2019-02-21T02:51:05.587Z,0.00
2019-02-21T02:52:05.530Z,0.00
2019-02-21T02:53:05.467Z,0.00
2019-02-21T02:54:05.413Z,0.00
2019-02-21T02:55:05.387Z,0.00
2019-02-21T02:56:05.297Z,0.00
2019-02-21T02:57:05.239Z,0.00
2019-02-21T02:58:06.629Z,0.00
2019-02-21T02:59:05.127Z,0.00
2019-02-21T03:00:05.192Z,0.00
2019-02-21T03:01:05.010Z,0.00
2019-02-21T03:02:04.953Z,0.00
2019-02-21T03:03:04.900Z,0.00
2019-02-21T03:04:04.847Z,0.00
2019-02-21T03:05:04.819Z,0.00
2019-02-21T03:06:04.725Z,0.00
2019-02-21T03:07:04.666Z,0.00
2019-02-21T03:08:04.673Z,0.00
2019-02-21T03:09:04.566Z,0.00
2019-02-21T03:10:04.496Z,0.00
2019-02-21T03:11:04.439Z,0.00
2019-02-21T03:12:04.378Z,0.00
2019-02-21T03:13:04.368Z,0.00
2019-02-21T03:14:04.266Z,0.00
2019-02-21T03:15:04.208Z,0.00
2019-02-21T03:16:04.183Z,0.00
2019-02-21T03:17:04.091Z,0.00
2019-02-21T03:18:04.066Z,0.00
2019-02-21T03:19:03.978Z,0.00
2019-02-21T03:20:03.954Z,0.00
2019-02-21T03:21:03.892Z,0.00
2019-02-21T03:22:03.978Z,0.00
2019-02-21T03:23:03.746Z,0.00
2019-02-21T03:24:03.688Z,0.00
2019-02-21T03:25:03.631Z,0.00
2019-02-21T03:26:03.616Z,0.00
2019-02-21T03:27:03.518Z,0.00
2019-02-21T03:28:03.458Z,0.00
2019-02-21T03:29:03.521Z,0.00
2019-02-21T03:30:03.365Z,0.00
2019-02-21T03:31:03.318Z,0.00
2019-02-21T03:32:03.249Z,0.00
2019-02-21T03:33:03.171Z,0.00
2019-02-21T03:34:03.120Z,0.00
2019-02-21T03:35:03.087Z,0.00
2019-02-21T03:36:02.998Z,0.00
2019-02-21T03:37:02.941Z,0.00
2019-02-21T03:38:02.883Z,0.00
2019-02-21T03:39:02.825Z,0.00
2019-02-21T03:40:02.852Z,0.00
2019-02-21T03:41:02.757Z,0.00
2019-02-21T03:42:02.650Z,0.00
2019-02-21T03:43:02.627Z,0.00
2019-02-21T03:44:02.548Z,0.00
2019-02-21T03:45:02.478Z,0.00
2019-02-21T03:46:02.424Z,0.00
2019-02-21T03:47:02.363Z,0.00
2019-02-21T03:48:02.335Z,0.00
2019-02-21T03:49:02.246Z,0.00
2019-02-21T03:50:02.188Z,0.00
2019-02-21T03:51:02.161Z,0.00
2019-02-21T03:52:02.071Z,0.00
2019-02-21T03:53:02.019Z,0.00
2019-02-21T03:54:01.958Z,0.00
2019-02-21T03:55:01.938Z,0.00
2019-02-21T03:56:01.844Z,0.00
2019-02-21T03:57:01.784Z,0.00
2019-02-21T03:58:01.728Z,0.00
2019-02-21T03:59:01.700Z,0.00
2019-02-21T04:00:01.610Z,0.00
2019-02-21T04:01:01.554Z,0.00
2019-02-21T04:02:05.431Z,0.00
2019-02-21T04:03:01.461Z,0.00
2019-02-21T04:04:01.380Z,0.00
2019-02-21T04:05:01.324Z,0.00
2019-02-21T04:06:01.289Z,0.00
2019-02-21T04:07:01.210Z,0.00
2019-02-21T04:08:01.438Z,0.00
2019-02-21T04:09:01.103Z,0.00
2019-02-21T04:10:01.033Z,0.00
2019-02-21T04:11:00.975Z,0.00
2019-02-21T04:12:00.918Z,0.00
2019-02-21T04:13:00.900Z,0.00
2019-02-21T04:14:00.801Z,0.00
2019-02-21T04:15:00.747Z,0.00
2019-02-21T04:16:00.689Z,0.00
2019-02-21T04:17:00.628Z,0.00
2019-02-21T04:18:00.602Z,0.00
2019-02-21T04:19:00.554Z,0.00
2019-02-21T04:20:00.454Z,0.00
2019-02-21T04:21:00.396Z,0.00
2019-02-21T04:22:00.339Z,0.00
2019-02-21T04:23:00.281Z,0.00
2019-02-21T04:24:00.257Z,0.00
2019-02-21T04:25:00.350Z,0.00
2019-02-21T04:26:00.110Z,0.00
2019-02-21T04:27:00.052Z,0.00
2019-02-21T04:28:00.008Z,0.00
2019-02-21T04:28:59.967Z,0.00
2019-02-21T04:29:59.908Z,0.00
2019-02-21T04:30:59.818Z,0.00
2019-02-21T04:31:59.758Z,0.00
2019-02-21T04:32:59.742Z,0.00
2019-02-21T04:33:59.646Z,0.00
2019-02-21T04:34:59.587Z,0.00
2019-02-21T04:35:59.527Z,0.00
2019-02-21T04:36:59.469Z,0.00
2019-02-21T04:37:59.443Z,0.00
2019-02-21T04:38:59.361Z,0.00
2019-02-21T04:39:59.329Z,0.00
2019-02-21T04:40:59.240Z,0.00
2019-02-21T04:41:59.186Z,0.00
2019-02-21T04:42:59.122Z,0.00
2019-02-21T04:43:59.103Z,0.00
2019-02-21T04:44:59.008Z,0.00
2019-02-21T04:45:58.950Z,0.00
2019-02-21T04:46:58.892Z,0.00
2019-02-21T04:47:58.831Z,0.00
2019-02-21T04:48:58.807Z,0.00
2019-02-21T04:49:58.722Z,0.00
2019-02-21T04:50:58.662Z,0.00
2019-02-21T04:51:58.600Z,0.00
2019-02-21T04:52:58.579Z,0.00
2019-02-21T04:53:58.486Z,0.00
2019-02-21T04:54:58.471Z,0.00
2019-02-21T04:55:58.369Z,0.00
2019-02-21T04:56:58.314Z,0.00
2019-02-21T04:57:58.254Z,0.00
2019-02-21T04:58:58.207Z,0.00
2019-02-21T04:59:58.175Z,0.00
2019-02-21T05:00:58.083Z,0.00
2019-02-21T05:01:58.057Z,0.00
2019-02-21T05:02:57.966Z,0.00
2019-02-21T05:03:57.911Z,0.00
2019-02-21T05:04:57.887Z,0.00
2019-02-21T05:05:57.790Z,0.00
2019-02-21T05:06:57.734Z,0.00
2019-02-21T05:07:57.673Z,0.00
2019-02-21T05:08:57.618Z,0.00
2019-02-21T05:09:58.537Z,0.00
2019-02-21T05:10:57.571Z,0.00
2019-02-21T05:11:57.443Z,0.00
2019-02-21T05:12:57.384Z,0.00
2019-02-21T05:13:57.327Z,0.00
2019-02-21T05:14:57.366Z,0.00
2019-02-21T05:15:57.248Z,0.00
2019-02-21T05:16:57.153Z,0.00
2019-02-21T05:17:57.095Z,0.00
2019-02-21T05:18:57.044Z,0.00
2019-02-21T05:19:56.979Z,0.00
2019-02-21T05:20:56.954Z,0.00
2019-02-21T05:21:56.895Z,0.00
2019-02-21T05:22:56.810Z,0.00
2019-02-21T05:23:56.749Z,0.00
2019-02-21T05:24:56.690Z,0.00
2019-02-21T05:25:56.661Z,0.00
2019-02-21T05:26:56.615Z,0.00
2019-02-21T05:27:56.518Z,0.00
2019-02-21T05:28:56.460Z,0.00
2019-02-21T05:29:56.404Z,0.00
2019-02-21T05:30:56.344Z,0.00
2019-02-21T05:31:56.321Z,0.00
2019-02-21T05:32:56.260Z,0.00
2019-02-21T05:33:56.203Z,0.00
2019-02-21T05:34:56.113Z,0.00
2019-02-21T05:35:56.056Z,0.00
2019-02-21T05:36:55.999Z,0.00
2019-02-21T05:37:55.941Z,0.00
2019-02-21T05:38:55.915Z,0.00
2019-02-21T05:39:55.826Z,0.00
2019-02-21T05:40:55.769Z,0.00
2019-02-21T05:41:55.709Z,0.00
2019-02-21T05:42:55.687Z,0.00
2019-02-21T05:43:55.598Z,0.00
2019-02-21T05:44:55.577Z,0.00
2019-02-21T05:45:55.479Z,0.00
2019-02-21T05:46:55.421Z,0.00
2019-02-21T05:47:55.364Z,0.00
2019-02-21T05:48:55.310Z,0.00
2019-02-21T05:49:55.284Z,0.00
2019-02-21T05:50:55.194Z,0.00
2019-02-21T05:51:55.140Z,0.00
2019-02-21T05:52:55.078Z,0.00
2019-02-21T05:53:55.023Z,0.00
2019-02-21T05:54:55.003Z,0.00
2019-02-21T05:55:54.906Z,0.00
2019-02-21T05:56:54.849Z,0.00
2019-02-21T05:57:54.793Z,0.00
2019-02-21T05:58:54.734Z,0.00
2019-02-21T05:59:54.713Z,0.00
2019-02-21T06:00:54.617Z,0.00
2019-02-21T06:01:54.562Z,0.00
2019-02-21T06:02:54.503Z,0.00
2019-02-21T06:03:54.444Z,0.00
2019-02-21T06:04:54.434Z,0.00
2019-02-21T06:05:54.338Z,0.00
2019-02-21T06:06:54.273Z,0.00
2019-02-21T06:07:54.218Z,0.00
2019-02-21T06:08:54.188Z,0.00
2019-02-21T06:09:54.104Z,0.00
2019-02-21T06:10:54.046Z,0.00
2019-02-21T06:11:54.018Z,0.00
2019-02-21T06:12:53.931Z,0.00
2019-02-21T06:13:53.872Z,0.00
2019-02-21T06:14:53.821Z,0.00
2019-02-21T06:15:53.796Z,0.00
2019-02-21T06:16:53.703Z,0.00
2019-02-21T06:17:53.647Z,0.00
2019-02-21T06:18:53.588Z,0.00
2019-02-21T06:19:53.527Z,0.00
2019-02-21T06:20:53.503Z,0.00
2019-02-21T06:21:53.473Z,0.00
2019-02-21T06:22:53.357Z,0.00
2019-02-21T06:23:53.307Z,0.00
2019-02-21T06:24:53.241Z,0.00
2019-02-21T06:25:58.267Z,0.00
2019-02-21T06:26:53.161Z,0.00
2019-02-21T06:27:53.107Z,0.00
2019-02-21T06:28:53.742Z,0.00
2019-02-21T06:29:52.987Z,0.00
2019-02-21T06:30:52.899Z,5.63
2019-02-21T06:31:52.839Z,5.63
2019-02-21T06:33:04.179Z,5.63
2019-02-21T06:33:52.758Z,5.63
2019-02-21T06:34:52.678Z,5.63
2019-02-21T06:35:52.612Z,5.63
2019-02-21T06:36:52.554Z,5.63
2019-02-21T06:37:52.497Z,5.63
2019-02-21T06:38:52.474Z,0.00
2019-02-21T06:39:52.381Z,0.00
2019-02-21T06:40:52.377Z,0.00
2019-02-21T06:41:59.695Z,0.00
2019-02-21T06:42:52.239Z,0.00
2019-02-21T06:43:52.835Z,0.00
2019-02-21T06:44:52.097Z,0.00
2019-02-21T06:45:52.036Z,0.00
2019-02-21T06:46:52.012Z,0.00
2019-02-21T06:47:51.920Z,0.00
2019-02-21T06:48:51.864Z,0.00
2019-02-21T06:49:51.806Z,5.63
2019-02-21T06:50:51.759Z,5.63
2019-02-21T06:51:51.729Z,5.63
2019-02-21T06:52:51.634Z,5.63
2019-02-21T06:53:53.196Z,5.63
2019-02-21T06:54:51.520Z,5.63
2019-02-21T06:55:51.462Z,11.25
2019-02-21T06:56:51.438Z,11.25
2019-02-21T06:57:51.347Z,16.88
2019-02-21T06:58:51.290Z,16.88
2019-02-21T06:59:51.237Z,22.50
2019-02-21T07:00:51.175Z,28.13
2019-02-21T07:01:51.151Z,28.13
2019-02-21T07:02:51.095Z,33.75
2019-02-21T07:03:51.001Z,33.75
2019-02-21T07:04:50.947Z,33.75
2019-02-21T07:05:50.927Z,33.75
2019-02-21T07:06:50.834Z,39.38
2019-02-21T07:07:50.773Z,84.38
2019-02-21T07:08:50.720Z,39.38
2019-02-21T07:09:50.660Z,45.00
2019-02-21T07:10:50.640Z,123.75
2019-02-21T07:11:50.584Z,146.25
2019-02-21T07:12:50.489Z,50.63
2019-02-21T07:13:50.434Z,50.63
2019-02-21T07:14:50.374Z,56.25
2019-02-21T07:15:50.317Z,56.25
2019-02-21T07:16:50.292Z,56.25
2019-02-21T07:17:50.203Z,50.63
2019-02-21T07:18:50.147Z,84.38
2019-02-21T07:19:50.127Z,90.00
2019-02-21T07:20:50.032Z,50.63
2019-02-21T07:21:49.989Z,45.00
2019-02-21T07:22:49.951Z,39.38
2019-02-21T07:23:49.863Z,33.75
2019-02-21T07:24:49.804Z,33.75
2019-02-21T07:25:50.651Z,33.75
2019-02-21T07:26:49.695Z,33.75
2019-02-21T07:27:49.679Z,33.75
2019-02-21T07:28:49.576Z,33.75
2019-02-21T07:29:49.525Z,39.38
2019-02-21T07:30:49.470Z,39.38
2019-02-21T07:31:49.659Z,33.75
2019-02-21T07:32:49.382Z,33.75
2019-02-21T07:33:49.295Z,28.13
2019-02-21T07:34:49.239Z,28.13
2019-02-21T07:35:49.182Z,22.50
2019-02-21T07:36:50.171Z,22.50
2019-02-21T07:37:49.112Z,22.50
2019-02-21T07:38:49.013Z,22.50
2019-02-21T07:39:50.847Z,28.13
2019-02-21T07:40:48.898Z,28.13
2019-02-21T07:41:50.049Z,28.13
2019-02-21T07:42:48.824Z,28.13
2019-02-21T07:43:48.726Z,28.13
2019-02-21T07:44:48.698Z,33.75
2019-02-21T07:45:48.614Z,33.75
2019-02-21T07:46:48.572Z,33.75
2019-02-21T07:47:48.530Z,33.75
2019-02-21T07:48:48.444Z,28.13
2019-02-21T07:49:48.417Z,28.13
2019-02-21T07:50:48.362Z,28.13
2019-02-21T07:51:48.341Z,28.13
2019-02-21T07:52:48.218Z,28.13
2019-02-21T07:53:48.161Z,28.13
2019-02-21T07:54:50.897Z,22.50
2019-02-21T07:55:48.079Z,16.88
2019-02-21T07:56:47.990Z,16.88
2019-02-21T07:57:47.936Z,16.88
2019-02-21T07:58:47.880Z,16.88
2019-02-21T07:59:47.822Z,16.88
2019-02-21T08:00:47.818Z,16.88
2019-02-21T08:01:47.707Z,16.88
2019-02-21T08:02:47.652Z,22.50
2019-02-21T08:03:48.637Z,22.50
2019-02-21T08:04:47.540Z,22.50
2019-02-21T08:05:47.513Z,22.50
2019-02-21T08:06:47.429Z,22.50
2019-02-21T08:07:49.781Z,28.13
2019-02-21T08:08:47.321Z,28.13
2019-02-21T08:09:47.289Z,28.13
2019-02-21T08:10:47.202Z,28.13
2019-02-21T08:11:47.144Z,28.13
2019-02-21T08:12:47.086Z,28.13
2019-02-21T08:13:47.067Z,28.13
2019-02-21T08:14:46.984Z,22.50
2019-02-21T08:15:46.919Z,22.50
2019-02-21T08:16:46.892Z,28.13
2019-02-21T08:17:46.817Z,28.13
2019-02-21T08:18:46.779Z,28.13
2019-02-21T08:19:46.690Z,28.13
2019-02-21T08:20:46.639Z,33.75
2019-02-21T08:21:46.665Z,33.75
2019-02-21T08:22:46.573Z,33.75
2019-02-21T08:23:50.667Z,39.38
2019-02-21T08:24:46.412Z,39.38
2019-02-21T08:25:46.355Z,45.00
2019-02-21T08:26:46.368Z,50.63
2019-02-21T08:27:46.238Z,56.25
2019-02-21T08:28:46.186Z,56.25
2019-02-21T08:29:46.139Z,56.25
2019-02-21T08:30:46.075Z,61.88
2019-02-21T08:31:46.079Z,61.88
2019-02-21T08:32:45.977Z,67.50
2019-02-21T08:33:57.615Z,61.88
2019-02-21T08:34:48.132Z,61.88
2019-02-21T08:35:45.788Z,61.88
2019-02-21T08:36:45.789Z,61.88
2019-02-21T08:37:45.676Z,61.88
2019-02-21T08:38:45.656Z,61.88
2019-02-21T08:39:45.567Z,56.25
2019-02-21T08:40:45.506Z,56.25
2019-02-21T08:41:45.451Z,50.63
2019-02-21T08:42:45.394Z,50.63
2019-02-21T08:43:45.368Z,50.63
2019-02-21T08:44:45.281Z,50.63
2019-02-21T08:45:45.229Z,50.63
2019-02-21T08:46:45.203Z,50.63
2019-02-21T08:47:45.151Z,50.63
2019-02-21T08:48:47.773Z,56.25
2019-02-21T08:49:45.004Z,56.25
2019-02-21T08:50:44.946Z,56.25
2019-02-21T08:51:44.890Z,56.25
2019-02-21T08:52:44.835Z,61.88
2019-02-21T08:53:44.810Z,61.88
2019-02-21T08:54:44.754Z,61.88
2019-02-21T08:55:44.695Z,56.25
2019-02-21T08:56:44.642Z,56.25
2019-02-21T08:57:44.590Z,50.63
2019-02-21T08:58:44.532Z,50.63
2019-02-21T08:59:44.441Z,50.63
2019-02-21T09:00:44.389Z,45.00
2019-02-21T09:01:44.363Z,45.00
2019-02-21T09:02:44.276Z,39.38
2019-02-21T09:03:44.222Z,33.75
2019-02-21T09:04:44.200Z,33.75
2019-02-21T09:05:44.110Z,33.75
2019-02-21T09:06:44.060Z,33.75
2019-02-21T09:07:46.177Z,33.75
2019-02-21T09:08:43.976Z,33.75
2019-02-21T09:09:43.886Z,33.75
2019-02-21T09:10:43.832Z,33.75
2019-02-21T09:11:43.809Z,39.38
2019-02-21T09:12:47.841Z,39.38
2019-02-21T09:13:43.672Z,39.38
2019-02-21T09:14:43.642Z,45.00
2019-02-21T09:15:46.345Z,50.63
2019-02-21T09:16:43.497Z,50.63
2019-02-21T09:17:43.448Z,50.63
2019-02-21T09:18:43.425Z,56.25
2019-02-21T09:19:43.334Z,56.25
2019-02-21T09:20:43.291Z,56.25
2019-02-21T09:21:43.225Z,56.25
2019-02-21T09:22:43.203Z,56.25
2019-02-21T09:23:43.113Z,56.25
2019-02-21T09:24:43.058Z,56.25
2019-02-21T09:25:43.031Z,56.25
2019-02-21T09:26:42.946Z,56.25
2019-02-21T09:27:42.889Z,61.88
2019-02-21T09:28:42.832Z,73.13
2019-02-21T09:29:42.783Z,78.75
2019-02-21T09:30:42.759Z,90.00
2019-02-21T09:31:42.668Z,106.88
2019-02-21T09:32:42.614Z,112.50
2019-02-21T09:33:43.849Z,118.13
2019-02-21T09:34:42.501Z,118.13
2019-02-21T09:35:42.481Z,118.13
2019-02-21T09:36:42.396Z,118.13
2019-02-21T09:37:42.338Z,118.13
2019-02-21T09:38:42.289Z,106.88
2019-02-21T09:39:42.227Z,101.25
2019-02-21T09:40:42.780Z,95.63
2019-02-21T09:41:42.116Z,90.00
2019-02-21T09:42:42.095Z,90.00
2019-02-21T09:43:42.041Z,84.38
2019-02-21T09:44:41.952Z,84.38
2019-02-21T09:45:42.328Z,84.38
2019-02-21T09:46:41.874Z,84.38
2019-02-21T09:47:41.791Z,90.00
2019-02-21T09:48:41.735Z,90.00
2019-02-21T09:49:41.680Z,95.63
2019-02-21T09:50:41.623Z,90.00
2019-02-21T09:51:41.612Z,84.38
2019-02-21T09:52:41.517Z,84.38
2019-02-21T09:53:41.488Z,84.38
2019-02-21T09:54:41.416Z,84.38
2019-02-21T09:55:41.353Z,84.38
2019-02-21T09:56:52.059Z,84.38
2019-02-21T09:57:41.244Z,84.38
2019-02-21T09:58:41.187Z,90.00
2019-02-21T09:59:41.183Z,90.00
2019-02-21T10:00:41.076Z,90.00
2019-02-21T10:01:41.025Z,90.00
2019-02-21T10:02:42.072Z,90.00
2019-02-21T10:03:40.914Z,90.00
2019-02-21T10:04:40.901Z,90.00
2019-02-21T10:05:40.809Z,90.00
2019-02-21T10:06:40.756Z,95.63
2019-02-21T10:07:40.698Z,95.63
2019-02-21T10:08:40.643Z,95.63
2019-02-21T10:09:40.622Z,101.25
2019-02-21T10:10:40.533Z,101.25
2019-02-21T10:11:40.476Z,101.25
2019-02-21T10:12:40.426Z,106.88
2019-02-21T10:13:40.371Z,112.50
2019-02-21T10:14:40.369Z,118.13
2019-02-21T10:15:40.260Z,123.75
2019-02-21T10:16:40.205Z,129.38
2019-02-21T10:17:40.153Z,129.38
2019-02-21T10:18:40.097Z,129.38
2019-02-21T10:19:40.085Z,135.00
2019-02-21T10:20:39.993Z,135.00
2019-02-21T10:21:39.933Z,135.00
2019-02-21T10:22:39.879Z,135.00
2019-02-21T10:23:42.090Z,146.25
2019-02-21T10:24:39.804Z,151.88
2019-02-21T10:25:39.715Z,146.25
2019-02-21T10:26:39.662Z,140.63
2019-02-21T10:27:39.606Z,135.00
2019-02-21T10:28:39.589Z,129.38
2019-02-21T10:29:39.498Z,123.75
2019-02-21T10:30:39.483Z,118.13
2019-02-21T10:31:39.399Z,118.13
2019-02-21T10:32:39.333Z,112.50
2019-02-21T10:33:46.485Z,106.88
2019-02-21T10:34:43.095Z,101.25
2019-02-21T10:35:39.200Z,95.63
2019-02-21T10:36:39.118Z,90.00
2019-02-21T10:37:39.069Z,84.38
2019-02-21T10:38:39.012Z,78.75
2019-02-21T10:39:38.988Z,78.75
2019-02-21T10:40:38.902Z,73.13
2019-02-21T10:41:38.847Z,73.13
2019-02-21T10:42:38.836Z,73.13
2019-02-21T10:43:38.741Z,67.50
2019-02-21T10:44:38.691Z,61.88
2019-02-21T10:45:47.320Z,61.88
2019-02-21T10:46:38.582Z,61.88
2019-02-21T10:47:38.557Z,61.88
2019-02-21T10:48:38.471Z,61.88
2019-02-21T10:49:38.421Z,61.88
2019-02-21T10:50:38.394Z,61.88
2019-02-21T10:51:38.306Z,56.25
2019-02-21T10:52:38.254Z,61.88
2019-02-21T10:53:38.198Z,67.50
2019-02-21T10:54:38.145Z,73.13
2019-02-21T10:55:38.122Z,78.75
2019-02-21T10:56:38.036Z,90.00
2019-02-21T10:57:37.981Z,95.63
2019-02-21T10:58:37.961Z,95.63
2019-02-21T10:59:46.149Z,95.63
2019-02-21T11:00:37.819Z,90.00
2019-02-21T11:01:37.765Z,90.00
2019-02-21T11:02:37.712Z,84.38
2019-02-21T11:03:37.690Z,78.75
2019-02-21T11:04:37.603Z,84.38
2019-02-21T11:05:37.584Z,84.38
2019-02-21T11:06:37.493Z,78.75
2019-02-21T11:07:37.440Z,78.75
2019-02-21T11:08:37.391Z,84.38
2019-02-21T11:09:37.369Z,84.38
2019-02-21T11:10:37.282Z,90.00
2019-02-21T11:11:37.235Z,95.63
2019-02-21T11:12:37.175Z,101.25
2019-02-21T11:13:37.151Z,106.88
2019-02-21T11:14:46.931Z,106.88
2019-02-21T11:15:37.040Z,101.25
2019-02-21T11:16:36.956Z,101.25
2019-02-21T11:17:36.904Z,101.25
2019-02-21T11:18:36.849Z,101.25
2019-02-21T11:19:36.794Z,112.50
2019-02-21T11:20:36.772Z,118.13
2019-02-21T11:21:36.689Z,123.75
2019-02-21T11:22:36.638Z,140.63
2019-02-21T11:23:36.580Z,191.25
2019-02-21T11:24:36.556Z,196.88
2019-02-21T11:25:36.497Z,180.00
2019-02-21T11:26:36.464Z,174.38
2019-02-21T11:27:36.368Z,168.75
2019-02-21T11:28:36.316Z,168.75
2019-02-21T11:29:36.299Z,157.50
2019-02-21T11:30:36.208Z,146.25
2019-02-21T11:31:36.154Z,135.00
2019-02-21T11:32:36.100Z,135.00
2019-02-21T11:33:36.050Z,135.00
2019-02-21T11:34:38.070Z,140.63
2019-02-21T11:35:35.940Z,151.88
2019-02-21T11:36:35.885Z,146.25
2019-02-21T11:37:43.244Z,146.25
2019-02-21T11:38:35.782Z,146.25
2019-02-21T11:39:35.728Z,146.25
2019-02-21T11:40:35.675Z,140.63
2019-02-21T11:41:35.621Z,140.63
2019-02-21T11:42:35.601Z,135.00
2019-02-21T11:43:35.514Z,135.00
2019-02-21T11:44:35.462Z,129.38
2019-02-21T11:45:35.411Z,123.75
2019-02-21T11:46:35.390Z,123.75
2019-02-21T11:47:35.333Z,123.75
2019-02-21T11:48:35.252Z,135.00
2019-02-21T11:49:35.242Z,140.63
2019-02-21T11:50:35.143Z,168.75
2019-02-21T11:51:35.092Z,151.88
2019-02-21T11:52:35.039Z,140.63
2019-02-21T11:53:34.989Z,129.38
2019-02-21T11:54:34.967Z,118.13
2019-02-21T11:55:34.880Z,112.50
2019-02-21T11:56:34.827Z,106.88
2019-02-21T11:57:34.799Z,106.88
2019-02-21T11:58:34.723Z,106.88
2019-02-21T11:59:34.694Z,106.88
2019-02-21T12:00:34.616Z,106.88
2019-02-21T12:01:34.635Z,106.88
2019-02-21T12:02:38.918Z,106.88
2019-02-21T12:03:34.461Z,112.50
2019-02-21T12:04:34.437Z,129.38
2019-02-21T12:05:34.378Z,118.13
2019-02-21T12:06:34.311Z,123.75
2019-02-21T12:07:34.249Z,129.38
2019-02-21T12:08:34.196Z,146.25
2019-02-21T12:09:34.143Z,146.25
2019-02-21T12:10:34.121Z,157.50
2019-02-21T12:11:34.037Z,163.13
2019-02-21T12:12:33.984Z,174.38
2019-02-21T12:13:33.966Z,191.25
2019-02-21T12:14:33.882Z,213.75
2019-02-21T12:15:33.831Z,230.63
2019-02-21T12:16:33.774Z,241.88
2019-02-21T12:17:33.724Z,225.00
2019-02-21T12:18:33.704Z,213.75
2019-02-21T12:19:33.619Z,185.63
2019-02-21T12:20:33.567Z,163.13
2019-02-21T12:21:33.512Z,151.88
2019-02-21T12:22:33.460Z,135.00
2019-02-21T12:23:33.439Z,123.75
2019-02-21T12:24:33.357Z,118.13
2019-02-21T12:25:33.340Z,112.50
2019-02-21T12:26:33.256Z,112.50
2019-02-21T12:27:33.198Z,106.88
2019-02-21T12:28:33.148Z,112.50
2019-02-21T12:29:33.130Z,112.50
2019-02-21T12:30:33.508Z,118.13
2019-02-21T12:31:32.990Z,129.38
2019-02-21T12:32:32.982Z,129.38
2019-02-21T12:33:32.888Z,129.38
2019-02-21T12:34:32.837Z,135.00
2019-02-21T12:35:32.803Z,146.25
2019-02-21T12:36:32.760Z,140.63
2019-02-21T12:37:32.720Z,163.13
2019-02-21T12:38:32.628Z,157.50
2019-02-21T12:39:32.575Z,146.25
2019-02-21T12:40:32.524Z,135.00
2019-02-21T12:41:32.469Z,129.38
2019-02-21T12:42:32.449Z,129.38
2019-02-21T12:43:32.365Z,123.75
2019-02-21T12:44:32.345Z,118.13
2019-02-21T12:45:32.265Z,118.13
2019-02-21T12:46:32.210Z,112.50
2019-02-21T12:47:32.155Z,106.88
2019-02-21T12:48:32.105Z,101.25
2019-02-21T12:49:32.727Z,95.63
2019-02-21T12:50:32.068Z,90.00
2019-02-21T12:51:31.987Z,90.00
2019-02-21T12:52:31.945Z,90.00
2019-02-21T12:53:31.868Z,90.00
2019-02-21T12:54:31.791Z,84.38
2019-02-21T12:55:31.917Z,84.38
2019-02-21T12:56:31.734Z,90.00
2019-02-21T12:57:31.634Z,90.00
2019-02-21T12:58:31.581Z,90.00
2019-02-21T12:59:31.529Z,95.63
2019-02-21T13:00:31.481Z,101.25